Bourton on the Water, United Kingdom
Current Conditions -  °F | °C
As of 1:50 AM on Monday 22 Dec 2014 (Local Time) from EGVN Reporting Station
Drizzle Drizzle  
Wind Chill: 11°   Ceiling: 800
Heat Index: 11°   Visibility: 4mi
Dew Point: 10°   Wind: 14mph
Humidity: 94%   Direction: 240°WSW
Pressure: 30.06"   Gusts: NA
Location:  51.87°N, 1.75°W
Report Text: EGVN 220150Z 24012KT 6000 -DZ FEW006 OVC008 11/10 Q1018 BECMG 9999 NSW
Loading
Personal Weather Stations






























Interactive Weather Map New forecast layout! Learn more

10-Day Weather Forecast

Advertisements
Track Severe Weather on mobile